TimeEST,TemperatureF,Dew PointF,Humidity,Sea Level PressureIn,VisibilityMPH,Wind Direction,Wind SpeedMPH,Gust SpeedMPH,PrecipitationIn,Events,Conditions,WindDirDegrees,DateUTC
12:11 AM,35.6,28.4,75,29.85,10.0,West,15.0,21.9,N/A,,Mostly Cloudy,260,2013-02-15 05:11:00
12:31 AM,35.6,28.4,75,29.86,10.0,West,15.0,18.4,N/A,,Mostly Cloudy,270,2013-02-15 05:31:00
12:51 AM,35.6,28.4,75,29.86,10.0,West,12.7,20.7,N/A,,Overcast,270,2013-02-15 05:51:00
1:11 AM,35.6,28.4,75,29.86,10.0,West,10.4,16.1,N/A,,Overcast,260,2013-02-15 06:11:00
1:51 AM,35.6,28.4,75,29.87,10.0,West,10.4,-,N/A,,Overcast,260,2013-02-15 06:51:00
2:11 AM,35.6,28.4,75,29.87,10.0,West,13.8,-,N/A,,Overcast,260,2013-02-15 07:11:00
2:52 AM,35.6,28.4,75,29.88,10.0,West,11.5,-,N/A,,Overcast,260,2013-02-15 07:52:00
3:12 AM,33.8,28.4,81,29.89,10.0,West,12.7,17.3,N/A,,Overcast,270,2013-02-15 08:12:00
3:32 AM,33.8,28.4,81,29.89,10.0,West,11.5,16.1,N/A,,Overcast,270,2013-02-15 08:32:00
3:52 AM,33.8,30.2,87,29.89,10.0,WNW,10.4,-,N/A,,Overcast,290,2013-02-15 08:52:00
4:12 AM,33.8,28.4,81,29.90,10.0,WNW,6.9,-,N/A,,Overcast,290,2013-02-15 09:12:00
4:52 AM,33.8,26.6,75,29.91,10.0,WNW,8.1,-,N/A,,Mostly Cloudy,300,2013-02-15 09:52:00
5:12 AM,33.8,26.6,75,29.93,10.0,WNW,6.9,-,N/A,,Mostly Cloudy,290,2013-02-15 10:12:00
5:32 AM,33.8,26.6,75,29.94,10.0,West,5.8,-,N/A,,Overcast,280,2013-02-15 10:32:00
5:53 AM,33.8,26.6,75,29.94,10.0,WNW,5.8,-,N/A,,Overcast,300,2013-02-15 10:53:00
6:13 AM,32.0,24.8,75,29.96,10.0,NW,8.1,-,N/A,,Overcast,310,2013-02-15 11:13:00
6:33 AM,32.0,24.8,75,29.97,10.0,NW,10.4,-,N/A,,Overcast,310,2013-02-15 11:33:00
6:53 AM,30.2,24.8,80,29.98,10.0,WNW,15.0,18.4,N/A,,Overcast,300,2013-02-15 11:53:00
7:13 AM,30.2,23.0,75,29.98,10.0,NW,10.4,-,N/A,,Overcast,320,2013-02-15 12:13:00
7:33 AM,30.2,23.0,75,29.99,10.0,NW,8.1,-,N/A,,Overcast,320,2013-02-15 12:33:00
7:53 AM,30.2,19.4,64,29.99,10.0,NW,9.2,-,N/A,,Overcast,320,2013-02-15 12:53:00
8:13 AM,30.2,19.4,64,30.01,10.0,NW,11.5,-,N/A,,Overcast,310,2013-02-15 13:13:00
8:33 AM,30.2,19.4,64,30.01,10.0,WNW,9.2,-,N/A,,Overcast,300,2013-02-15 13:33:00
8:54 AM,30.2,19.4,64,30.02,10.0,NW,10.4,-,N/A,,Overcast,320,2013-02-15 13:54:00
9:14 AM,30.2,19.4,64,30.03,10.0,WNW,8.1,-,N/A,,Overcast,300,2013-02-15 14:14:00
9:34 AM,30.2,19.4,64,30.03,10.0,NW,10.4,-,N/A,,Overcast,320,2013-02-15 14:34:00
9:54 AM,30.2,19.4,64,30.04,10.0,NNW,10.4,-,N/A,,Overcast,340,2013-02-15 14:54:00
10:14 AM,30.2,19.4,64,30.05,10.0,NW,9.2,-,N/A,,Overcast,310,2013-02-15 15:14:00
10:34 AM,30.2,19.4,64,30.04,10.0,West,8.1,-,N/A,,Overcast,280,2013-02-15 15:34:00
10:54 AM,30.2,17.6,60,30.05,10.0,NW,10.4,-,N/A,,Overcast,310,2013-02-15 15:54:00
11:34 AM,30.2,17.6,60,30.06,10.0,WNW,10.4,-,N/A,,Overcast,300,2013-02-15 16:34:00
11:54 AM,30.2,17.6,60,30.06,10.0,WNW,8.1,-,N/A,,Overcast,300,2013-02-15 16:54:00
12:55 PM,32.0,19.4,60,30.05,10.0,NW,12.7,-,N/A,,Overcast,310,2013-02-15 17:55:00
1:35 PM,33.8,19.4,56,30.03,10.0,West,13.8,-,N/A,,Mostly Cloudy,270,2013-02-15 18:35:00
2:55 PM,33.8,17.6,52,30.03,10.0,WNW,12.7,17.3,N/A,,Overcast,300,2013-02-15 19:55:00
3:11 PM,32.0,17.6,55,30.03,10.0,NW,15.0,19.6,N/A,,Overcast,310,2013-02-15 20:11:00
3:31 PM,32.0,19.4,60,30.04,10.0,NW,11.5,18.4,N/A,,Overcast,310,2013-02-15 20:31:00
3:51 PM,32.0,17.6,55,30.04,10.0,NW,12.7,-,N/A,,Overcast,320,2013-02-15 20:51:00
4:31 PM,30.2,17.6,60,30.06,10.0,WNW,11.5,-,N/A,,Overcast,300,2013-02-15 21:31:00
4:51 PM,30.2,15.8,55,30.06,10.0,WNW,11.5,-,N/A,,Mostly Cloudy,290,2013-02-15 21:51:00
5:11 PM,30.2,15.8,55,30.07,10.0,NW,9.2,-,N/A,,Scattered Clouds,320,2013-02-15 22:11:00
5:31 PM,30.2,15.8,55,30.07,10.0,WNW,10.4,17.3,N/A,,Scattered Clouds,300,2013-02-15 22:31:00
5:51 PM,28.4,15.8,59,30.07,10.0,NNW,8.1,-,N/A,,Scattered Clouds,330,2013-02-15 22:51:00
6:32 PM,28.4,15.8,59,30.08,10.0,NW,6.9,-,N/A,,Overcast,310,2013-02-15 23:32:00
6:52 PM,28.4,17.6,64,30.09,10.0,NNW,4.6,-,N/A,,Overcast,330,2013-02-15 23:52:00
7:12 PM,28.4,17.6,64,30.09,10.0,NW,4.6,-,N/A,,Overcast,320,2013-02-16 00:12:00
7:32 PM,28.4,15.8,59,30.09,10.0,NW,5.8,-,N/A,,Overcast,310,2013-02-16 00:32:00
7:52 PM,28.4,17.6,64,30.09,10.0,NW,6.9,-,N/A,,Mostly Cloudy,320,2013-02-16 00:52:00
8:12 PM,28.4,15.8,59,30.09,10.0,NW,5.8,-,N/A,,Mostly Cloudy,320,2013-02-16 01:12:00
9:32 PM,28.4,15.8,59,30.10,10.0,NW,4.6,-,N/A,,Overcast,310,2013-02-16 02:32:00
10:33 PM,26.6,17.6,69,30.11,10.0,West,13.8,20.7,N/A,,Overcast,280,2013-02-16 03:33:00
10:53 PM,26.6,15.8,64,30.11,10.0,WNW,13.8,-,N/A,,Overcast,290,2013-02-16 03:53:00
11:13 PM,26.6,15.8,64,30.10,10.0,WNW,13.8,-,N/A,,Overcast,290,2013-02-16 04:13:00
11:33 PM,26.6,15.8,64,30.10,10.0,WNW,12.7,-,N/A,,Overcast,290,2013-02-16 04:33:00
11:53 PM,24.8,17.6,74,30.10,10.0,WNW,6.9,-,N/A,,Mostly Cloudy,290,2013-02-16 04:53:00